Time;durP1;ratioP1;P1;durP2;ratioP2;P2;SDS_P1;SDS_P2;PMS_P1;PMS_P2;Temp;Humidity;BMP_temperature;BMP_pressure;BME280_temperature;BME280_humidity;BME280_pressure;Samples;Min_cycle;Max_cycle;Signal;HPM_P1;HPM_P2
2023/02/07 00:01:26;;;;;;;17.30;11.23;;;-4.60;99.90;;;;;;5032684;28;20049;-36
2023/02/07 00:03:55;;;;;;;15.45;11.68;;;-4.70;99.90;;;;;;5044938;28;20048;-36
2023/02/07 00:06:26;;;;;;;11.23;9.55;;;-4.70;99.90;;;;;;5052625;28;20496;-36
2023/02/07 00:08:54;;;;;;;16.45;10.75;;;-4.70;99.90;;;;;;5051509;28;20044;-36
2023/02/07 00:11:23;;;;;;;11.80;10.45;;;-4.70;99.90;;;;;;5052522;28;20052;-36
2023/02/07 00:13:53;;;;;;;12.20;9.98;;;-4.70;99.90;;;;;;5049286;28;20051;-36
2023/02/07 00:16:21;;;;;;;10.43;9.40;;;-4.70;99.90;;;;;;5040455;28;20053;-36
2023/02/07 00:18:51;;;;;;;8.90;8.10;;;-4.70;99.90;;;;;;5053324;28;20053;-35
2023/02/07 00:21:21;;;;;;;15.48;11.02;;;-4.80;99.90;;;;;;5044897;28;20057;-36
2023/02/07 00:23:50;;;;;;;15.68;12.60;;;-4.70;99.90;;;;;;5054132;28;20063;-36
2023/02/07 00:26:19;;;;;;;15.70;13.52;;;-4.70;99.90;;;;;;5049662;28;20049;-36
2023/02/07 00:28:49;;;;;;;9.55;8.60;;;-4.80;99.90;;;;;;5052501;28;20037;-36
2023/02/07 00:31:19;;;;;;;14.18;8.90;;;-4.70;99.90;;;;;;5050023;28;20053;-36
2023/02/07 00:33:50;;;;;;;5.32;4.35;;;-4.70;99.90;;;;;;5045149;28;20041;-36
2023/02/07 00:36:20;;;;;;;12.00;8.52;;;-4.80;99.90;;;;;;5052445;28;20530;-36
2023/02/07 00:38:49;;;;;;;11.87;10.63;;;-4.80;99.90;;;;;;5052145;28;20057;-36
2023/02/07 00:41:18;;;;;;;13.70;10.00;;;-4.80;99.90;;;;;;5033923;28;20037;-36
2023/02/07 00:43:47;;;;;;;11.13;10.05;;;-4.80;99.90;;;;;;5047176;28;20052;-36
2023/02/07 00:46:15;;;;;;;13.48;9.57;;;-4.80;99.90;;;;;;5048711;28;20398;-36
2023/02/07 00:48:43;;;;;;;14.38;9.55;;;-4.80;99.90;;;;;;5051783;28;20041;-36
2023/02/07 00:51:15;;;;;;;14.82;13.43;;;-4.80;99.90;;;;;;5050543;28;20416;-36
2023/02/07 00:53:46;;;;;;;7.93;7.13;;;-4.90;99.90;;;;;;5039048;28;20312;-36
2023/02/07 00:56:14;;;;;;;12.55;11.23;;;-4.90;99.90;;;;;;5045703;28;20150;-36
2023/02/07 00:58:42;;;;;;;11.85;8.63;;;-4.80;99.90;;;;;;5054799;28;20068;-36
2023/02/07 01:01:09;;;;;;;4.15;3.92;;;-4.90;99.90;;;;;;5051556;28;20044;-36
2023/02/07 01:03:37;;;;;;;10.80;9.20;;;-4.90;99.90;;;;;;5028880;28;20057;-36
2023/02/07 01:06:06;;;;;;;11.73;8.88;;;-5.00;99.90;;;;;;5051594;28;20033;-36
2023/02/07 01:08:34;;;;;;;8.05;7.35;;;-5.00;99.90;;;;;;5035472;28;20041;-36
2023/02/07 01:11:04;;;;;;;6.85;6.15;;;-5.00;99.90;;;;;;5031497;28;20048;-36
2023/02/07 01:13:31;;;;;;;8.15;7.30;;;-5.00;99.90;;;;;;5031087;28;20055;-36
2023/02/07 01:15:59;;;;;;;14.90;9.73;;;-5.10;99.90;;;;;;5033313;28;20060;-36
2023/02/07 01:18:28;;;;;;;11.00;9.82;;;-5.10;99.90;;;;;;5050903;28;20052;-36
2023/02/07 01:20:55;;;;;;;10.23;9.13;;;-5.10;99.90;;;;;;5050792;28;20408;-38
2023/02/07 01:23:23;;;;;;;9.93;8.98;;;-5.10;99.90;;;;;;5045013;28;20681;-36
2023/02/07 01:25:50;;;;;;;10.90;7.40;;;-5.20;99.90;;;;;;5050903;28;20418;-36
2023/02/07 01:28:18;;;;;;;16.77;10.07;;;-5.10;99.90;;;;;;5054319;28;20052;-36
2023/02/07 01:30:45;;;;;;;14.07;9.40;;;-5.10;99.90;;;;;;5047228;28;20064;-36
2023/02/07 01:33:13;;;;;;;6.68;6.07;;;-5.20;99.90;;;;;;5048141;28;20532;-36
2023/02/07 01:35:45;;;;;;;12.38;11.07;;;-5.20;99.90;;;;;;5051436;28;20048;-37
2023/02/07 01:38:12;;;;;;;;;;;-5.20;99.90;;;;;;5051402;28;20045;-36
2023/02/07 01:40:40;;;;;;;7.22;6.72;;;-5.10;99.90;;;;;;5044798;28;19975;-36
2023/02/07 01:43:17;;;;;;;13.10;11.90;;;-5.20;99.90;;;;;;5050921;28;20052;-36
2023/02/07 01:45:45;;;;;;;7.55;6.88;;;-5.20;99.90;;;;;;5034200;28;20072;-36
2023/02/07 01:48:19;;;;;;;9.35;8.20;;;-5.20;99.90;;;;;;5049244;28;20048;-36
2023/02/07 01:50:49;;;;;;;19.30;15.70;;;-5.20;99.90;;;;;;5028974;28;20064;-36
2023/02/07 01:53:21;;;;;;;12.00;10.25;;;-5.30;99.90;;;;;;5047815;28;20041;-36
2023/02/07 01:55:52;;;;;;;12.45;10.50;;;-5.30;99.90;;;;;;5051678;28;20591;-37
2023/02/07 01:58:21;;;;;;;8.00;7.43;;;-5.30;99.90;;;;;;5042851;28;20056;-36
2023/02/07 02:00:49;;;;;;;9.73;7.43;;;-5.30;99.90;;;;;;5030016;28;20394;-36
2023/02/07 02:03:17;;;;;;;12.65;8.45;;;-5.30;99.90;;;;;;5044726;28;20120;-36
2023/02/07 02:05:46;;;;;;;11.50;10.45;;;-5.30;99.90;;;;;;5029624;28;20053;-36
2023/02/07 02:08:14;;;;;;;16.15;12.35;;;-5.30;99.90;;;;;;5046008;28;20061;-36
2023/02/07 02:11:00;;;;;;;8.00;7.13;;;-5.30;99.90;;;;;;5013182;28;20514;-37
2023/02/07 02:13:43;;;;;;;6.55;5.95;;;-5.30;99.90;;;;;;5034562;28;20071;-36
2023/02/07 02:16:34;;;;;;;11.88;9.65;;;-5.30;99.90;;;;;;5044273;28;20625;-36
2023/02/07 02:19:19;;;;;;;17.88;9.23;;;-5.30;99.90;;;;;;5051251;28;20050;-36
2023/02/07 02:22:08;;;;;;;9.60;8.05;;;-5.40;99.90;;;;;;5048833;28;20072;-36
2023/02/07 02:24:43;;;;;;;6.03;5.45;;;-5.40;99.90;;;;;;5042117;28;20049;-36
2023/02/07 02:27:29;;;;;;;17.23;9.40;;;-5.30;99.90;;;;;;5053056;28;20528;-36
2023/02/07 02:30:34;;;;;;;18.70;10.57;;;-5.40;99.90;;;;;;5023365;28;20099;-36
2023/02/07 02:33:09;;;;;;;17.95;10.18;;;-5.40;99.90;;;;;;5034021;28;20052;-36
2023/02/07 02:36:18;;;;;;;12.68;10.27;;;-5.50;99.90;;;;;;5024730;28;20056;-36
2023/02/07 02:39:14;;;;;;;16.27;8.35;;;-5.50;99.90;;;;;;5014778;28;20389;-36
2023/02/07 02:41:48;;;;;;;12.15;10.95;;;-5.50;99.90;;;;;;5033895;28;20071;-36
2023/02/07 02:44:30;;;;;;;18.73;6.80;;;-5.50;99.90;;;;;;5032320;28;20057;-36
2023/02/07 02:47:01;;;;;;;8.77;7.70;;;-5.50;99.90;;;;;;5033242;28;20044;-36
2023/02/07 02:49:32;;;;;;;9.85;8.98;;;-5.50;99.90;;;;;;5051354;28;20056;-36
2023/02/07 02:51:59;;;;;;;11.95;9.13;;;-5.50;99.90;;;;;;5043815;28;20049;-36
2023/02/07 02:54:36;;;;;;;17.67;13.20;;;-5.60;99.90;;;;;;5027193;28;20044;-36
2023/02/07 02:57:33;;;;;;;10.27;6.72;;;-5.60;99.90;;;;;;5029574;28;20492;-36
2023/02/07 03:00:21;;;;;;;8.05;5.40;;;-5.60;99.90;;;;;;5046506;28;20057;-36
2023/02/07 03:03:27;;;;;;;5.47;5.07;;;-5.60;99.90;;;;;;5025780;28;20041;-36
2023/02/07 03:06:03;;;;;;;10.02;9.00;;;-5.60;99.90;;;;;;5043874;28;20417;-36
2023/02/07 03:08:51;;;;;;;18.40;16.60;;;-5.70;99.90;;;;;;5030364;28;20068;-36
2023/02/07 03:11:21;;;;;;;11.02;6.20;;;-5.80;99.90;;;;;;5027060;28;20059;-36
2023/02/07 03:14:07;;;;;;;8.38;7.50;;;-5.70;99.90;;;;;;5033749;28;20049;-36
2023/02/07 03:16:47;;;;;;;15.20;9.90;;;-5.70;99.90;;;;;;5040822;28;20452;-36
2023/02/07 03:19:19;;;;;;;6.65;6.15;;;-5.70;99.90;;;;;;5051511;28;20049;-35
2023/02/07 03:21:58;;;;;;;14.65;10.88;;;-5.70;99.90;;;;;;5032830;28;20041;-35
2023/02/07 03:24:32;;;;;;;10.98;8.43;;;-5.70;99.90;;;;;;5045564;28;20432;-36
2023/02/07 03:27:04;;;;;;;10.00;9.07;;;-5.80;99.90;;;;;;5051327;28;20053;-36
2023/02/07 03:29:35;;;;;;;9.30;5.70;;;-5.80;99.90;;;;;;5047437;28;20056;-36
2023/02/07 03:32:05;;;;;;;9.38;7.70;;;-5.70;99.90;;;;;;5048020;28;20052;-35
2023/02/07 03:34:41;;;;;;;6.88;6.25;;;-5.80;99.90;;;;;;5054091;28;20048;-36
2023/02/07 03:37:17;;;;;;;9.65;8.45;;;-5.80;99.90;;;;;;5053892;28;20068;-37
2023/02/07 03:39:45;;;;;;;13.52;9.48;;;-5.80;99.90;;;;;;5052672;28;20053;-38
2023/02/07 03:42:35;;;;;;;4.65;4.35;;;-5.80;99.90;;;;;;5049293;28;20059;-36
2023/02/07 03:45:06;;;;;;;15.50;8.98;;;-5.80;99.90;;;;;;5049032;28;20049;-37
2023/02/07 03:47:33;;;;;;;10.45;8.18;;;-5.90;99.90;;;;;;5047419;28;20405;-36
2023/02/07 03:50:01;;;;;;;2.17;2.08;;;-5.90;99.90;;;;;;5052445;28;20049;-37
2023/02/07 03:52:29;;;;;;;9.38;7.45;;;-5.90;99.90;;;;;;5051061;28;20044;-36
2023/02/07 03:54:56;;;;;;;10.88;9.95;;;-5.90;99.90;;;;;;5046410;28;20056;-36
2023/02/07 03:57:24;;;;;;;12.32;8.30;;;-6.00;99.90;;;;;;5053384;28;20052;-36
2023/02/07 03:59:51;;;;;;;8.20;6.15;;;-6.00;99.90;;;;;;5054313;28;20494;-36
2023/02/07 04:02:19;;;;;;;6.50;4.53;;;-6.00;99.90;;;;;;5053795;28;20048;-36
2023/02/07 04:04:46;;;;;;;11.90;9.82;;;-6.00;99.90;;;;;;5052712;28;20057;-36
2023/02/07 04:07:14;;;;;;;10.77;8.98;;;-6.00;99.90;;;;;;5053145;28;20049;-36
2023/02/07 04:09:41;;;;;;;11.75;10.30;;;-6.10;99.90;;;;;;5050039;28;20052;-36
2023/02/07 04:12:12;;;;;;;12.05;10.57;;;-6.10;99.90;;;;;;5048429;28;20045;-36
2023/02/07 04:14:39;;;;;;;13.52;9.90;;;-6.10;99.90;;;;;;5052960;28;20056;-37
2023/02/07 04:17:07;;;;;;;11.05;9.15;;;-6.10;99.90;;;;;;5047724;28;20045;-36
2023/02/07 04:19:34;;;;;;;9.85;7.07;;;-6.10;99.90;;;;;;5047532;28;20049;-36
2023/02/07 04:22:02;;;;;;;12.75;10.38;;;-6.20;99.90;;;;;;5047628;28;20559;-36
2023/02/07 04:24:31;;;;;;;9.48;8.63;;;-6.20;99.90;;;;;;5046361;28;20435;-36
2023/02/07 04:26:58;;;;;;;8.65;7.35;;;-6.20;99.90;;;;;;5048485;28;20044;-37
2023/02/07 04:29:26;;;;;;;13.02;8.45;;;-6.20;99.90;;;;;;5050090;28;20048;-36
2023/02/07 04:31:53;;;;;;;13.18;9.15;;;-6.20;99.90;;;;;;5048302;28;20044;-36
2023/02/07 04:34:23;;;;;;;9.85;8.55;;;-6.20;99.90;;;;;;5048779;28;20057;-36
2023/02/07 04:36:51;;;;;;;10.30;9.30;;;-6.30;99.90;;;;;;5050812;28;20041;-36
2023/02/07 04:39:18;;;;;;;13.48;8.60;;;-6.30;99.90;;;;;;5048776;28;20048;-36
2023/02/07 04:41:46;;;;;;;11.38;9.57;;;-6.30;99.90;;;;;;5047547;28;20475;-35
2023/02/07 04:44:13;;;;;;;9.52;8.30;;;-6.40;99.90;;;;;;5051610;28;20049;-36
2023/02/07 04:46:41;;;;;;;4.63;4.35;;;-6.40;99.90;;;;;;5047410;28;20053;-36
2023/02/07 04:49:09;;;;;;;14.02;11.20;;;-6.50;99.90;;;;;;5054775;28;20044;-36
2023/02/07 04:51:36;;;;;;;16.05;10.73;;;-6.40;99.90;;;;;;5048316;28;20056;-36
2023/02/07 04:54:04;;;;;;;10.45;7.10;;;-6.40;99.90;;;;;;5048757;28;20056;-37
2023/02/07 04:56:31;;;;;;;16.55;7.65;;;-6.40;99.90;;;;;;5052793;28;20049;-36
2023/02/07 04:59:02;;;;;;;11.07;9.67;;;-6.40;99.90;;;;;;5049922;28;20057;-36
2023/02/07 05:01:30;;;;;;;7.18;6.47;;;-6.40;99.90;;;;;;5037608;28;20299;-36
2023/02/07 05:03:58;;;;;;;11.15;9.63;;;-6.40;99.90;;;;;;5049038;28;20080;-36
2023/02/07 05:06:25;;;;;;;13.25;8.60;;;-6.50;99.90;;;;;;5050552;28;20045;-36
2023/02/07 05:08:53;;;;;;;8.02;7.32;;;-6.50;99.90;;;;;;5053791;28;20398;-36
2023/02/07 05:11:21;;;;;;;10.73;8.93;;;-6.50;99.90;;;;;;5047403;28;20539;-36
2023/02/07 05:13:49;;;;;;;8.73;7.80;;;-6.50;99.90;;;;;;5048277;28;20469;-35
2023/02/07 05:16:17;;;;;;;10.48;9.52;;;-6.50;99.90;;;;;;5053588;28;20383;-36
2023/02/07 05:18:45;;;;;;;13.85;10.40;;;-6.50;99.90;;;;;;5049468;28;20049;-36
2023/02/07 05:21:13;;;;;;;7.78;7.03;;;-6.50;99.90;;;;;;5045372;28;20391;-36
2023/02/07 05:23:41;;;;;;;7.80;7.10;;;-6.40;99.90;;;;;;5051010;28;20049;-36
2023/02/07 05:26:08;;;;;;;10.27;9.23;;;-6.40;99.90;;;;;;5052498;28;20056;-36
2023/02/07 05:28:36;;;;;;;18.52;10.57;;;-6.40;99.90;;;;;;5052129;28;20364;-36
2023/02/07 05:31:03;;;;;;;17.45;8.98;;;-6.40;99.90;;;;;;5045453;28;20066;-36
2023/02/07 05:33:31;;;;;;;5.25;4.82;;;-6.40;99.90;;;;;;5047454;28;20055;-36
2023/02/07 05:36:01;;;;;;;9.60;7.85;;;-6.40;99.90;;;;;;5051577;28;20514;-36
2023/02/07 05:38:29;;;;;;;4.85;4.43;;;-6.40;99.90;;;;;;5048656;28;20048;-36
2023/02/07 05:40:56;;;;;;;19.45;10.65;;;-6.40;99.90;;;;;;5047886;28;20048;-36
2023/02/07 05:43:24;;;;;;;41.20;10.13;;;-6.40;99.90;;;;;;5047732;28;20415;-36
2023/02/07 05:45:51;;;;;;;6.75;6.22;;;-6.50;99.90;;;;;;5050254;28;20052;-36
2023/02/07 05:48:19;;;;;;;12.30;8.18;;;-6.50;99.90;;;;;;5049710;28;20067;-36
2023/02/07 05:50:47;;;;;;;14.43;8.45;;;-6.40;99.90;;;;;;5049919;28;20052;-36
2023/02/07 05:53:14;;;;;;;10.30;8.50;;;-6.40;99.90;;;;;;5047976;28;20064;-36
2023/02/07 05:55:42;;;;;;;9.32;8.50;;;-6.50;99.90;;;;;;5051428;28;20060;-36
2023/02/07 05:58:09;;;;;;;2.05;2.03;;;-6.50;99.90;;;;;;5044803;28;20045;-36
2023/02/07 06:00:37;;;;;;;15.63;10.35;;;-6.50;99.90;;;;;;5040544;28;20052;-36
2023/02/07 06:03:04;;;;;;;19.38;14.95;;;-6.50;99.90;;;;;;5048909;28;20057;-36
2023/02/07 06:05:33;;;;;;;8.18;7.47;;;-6.50;99.90;;;;;;5044078;28;20433;-35
2023/02/07 06:08:01;;;;;;;5.95;5.57;;;-6.50;99.90;;;;;;5042117;28;20055;-36
2023/02/07 06:10:29;;;;;;;5.88;5.00;;;-6.50;99.90;;;;;;5045820;28;20048;-36
2023/02/07 06:12:56;;;;;;;4.25;3.95;;;-6.50;99.90;;;;;;5043694;28;20412;-36
2023/02/07 06:15:24;;;;;;;5.70;5.30;;;-6.50;99.90;;;;;;5039209;28;20545;-36
2023/02/07 06:17:51;;;;;;;13.90;9.07;;;-6.60;99.90;;;;;;5032147;28;21237;-36
2023/02/07 06:20:19;;;;;;;13.00;8.20;;;-6.60;99.90;;;;;;5036152;28;20049;-35
2023/02/07 06:22:47;;;;;;;14.43;7.55;;;-6.60;99.90;;;;;;5037892;28;20049;-36
2023/02/07 06:25:14;;;;;;;11.23;8.65;;;-6.60;99.90;;;;;;5046337;28;20048;-36
2023/02/07 06:27:42;;;;;;;10.73;7.28;;;-6.60;99.90;;;;;;5047982;28;20491;-36
2023/02/07 06:30:11;;;;;;;9.73;8.70;;;-6.60;99.90;;;;;;5050459;28;20452;-36
2023/02/07 06:32:39;;;;;;;18.25;9.27;;;-6.60;99.90;;;;;;5019593;28;20033;-36
2023/02/07 06:35:07;;;;;;;12.05;9.35;;;-6.60;99.90;;;;;;5016734;28;20064;-36
2023/02/07 06:37:35;;;;;;;11.73;9.35;;;-6.60;99.90;;;;;;5017707;28;20053;-36
2023/02/07 06:40:03;;;;;;;13.23;10.80;;;-6.70;99.90;;;;;;5012521;28;20049;-36
2023/02/07 06:42:31;;;;;;;10.68;5.40;;;-6.60;99.90;;;;;;5020695;28;20046;-36
2023/02/07 06:44:59;;;;;;;12.82;11.63;;;-6.60;99.90;;;;;;5025521;28;20049;-36
2023/02/07 06:47:26;;;;;;;7.07;6.45;;;-6.60;99.90;;;;;;5023224;28;20053;-36
2023/02/07 06:49:54;;;;;;;9.70;6.03;;;-6.60;99.90;;;;;;5035431;28;20057;-36
2023/02/07 06:52:21;;;;;;;12.57;9.90;;;-6.60;99.90;;;;;;5034498;28;20057;-36
2023/02/07 06:54:49;;;;;;;14.70;10.88;;;-6.60;99.90;;;;;;5043215;28;20057;-36
2023/02/07 06:57:16;;;;;;;8.20;7.28;;;-6.60;99.90;;;;;;5049288;28;20064;-35
2023/02/07 06:59:44;;;;;;;16.65;12.35;;;-6.50;99.90;;;;;;5050442;28;20052;-36
2023/02/07 07:02:12;;;;;;;5.65;5.28;;;-6.50;99.90;;;;;;5045887;28;20044;-36
2023/02/07 07:04:39;;;;;;;10.18;7.88;;;-6.50;99.90;;;;;;5052160;28;20312;-36
2023/02/07 07:07:07;;;;;;;29.83;8.38;;;-6.50;99.90;;;;;;5054618;28;20041;-36
2023/02/07 07:09:34;;;;;;;11.40;9.82;;;-6.50;99.90;;;;;;5050098;28;20063;-36
2023/02/07 07:12:03;;;;;;;6.05;5.55;;;-6.50;99.90;;;;;;5048645;28;20116;-36
2023/02/07 07:14:31;;;;;;;9.27;7.85;;;-6.40;99.90;;;;;;5047270;28;20049;-36
2023/02/07 07:16:59;;;;;;;9.40;8.48;;;-6.40;99.90;;;;;;5052168;28;20516;-36
2023/02/07 07:19:26;;;;;;;12.98;8.95;;;-6.40;99.90;;;;;;5051555;28;20058;-36
2023/02/07 07:21:54;;;;;;;13.95;10.75;;;-6.40;99.90;;;;;;5050830;28;20048;-36
2023/02/07 07:24:22;;;;;;;15.07;13.48;;;-6.30;99.90;;;;;;5049985;28;20071;-37
2023/02/07 07:26:49;;;;;;;12.02;10.85;;;-6.30;99.90;;;;;;5053335;28;20083;-37
2023/02/07 07:29:18;;;;;;;13.05;10.40;;;-6.20;99.90;;;;;;5053251;28;20052;-36
2023/02/07 07:31:46;;;;;;;13.27;9.48;;;-6.20;99.90;;;;;;5041646;28;20057;-36
2023/02/07 07:34:14;;;;;;;13.75;12.32;;;-6.20;99.90;;;;;;5045615;28;20055;-36
2023/02/07 07:36:41;;;;;;;8.85;8.05;;;-6.10;99.90;;;;;;5053631;28;20041;-36
2023/02/07 07:39:09;;;;;;;9.25;7.22;;;-6.10;99.90;;;;;;5052162;28;20413;-36
2023/02/07 07:41:36;;;;;;;9.00;7.45;;;-6.00;99.90;;;;;;5052541;28;20049;-36
2023/02/07 07:44:04;;;;;;;15.48;12.68;;;-6.00;99.90;;;;;;5056973;28;20405;-37
2023/02/07 07:46:32;;;;;;;6.10;5.32;;;-6.00;99.90;;;;;;5049145;28;20048;-36
2023/02/07 07:49:00;;;;;;;6.82;6.28;;;-5.90;99.90;;;;;;5047144;28;20040;-36
2023/02/07 07:51:27;;;;;;;12.23;9.07;;;-5.90;99.90;;;;;;5051214;28;20048;-36
2023/02/07 07:53:55;;;;;;;16.05;10.07;;;-5.80;99.90;;;;;;5053099;28;20404;-37
2023/02/07 07:56:22;;;;;;;13.35;10.52;;;-5.70;99.90;;;;;;5048366;28;20053;-36
2023/02/07 07:58:50;;;;;;;9.27;8.25;;;-5.70;99.90;;;;;;5051424;28;20056;-36
2023/02/07 08:01:17;;;;;;;9.80;8.05;;;-5.60;99.90;;;;;;5050807;28;20041;-36
2023/02/07 08:03:45;;;;;;;11.68;8.15;;;-5.60;99.90;;;;;;5052717;28;20056;-36
2023/02/07 08:06:12;;;;;;;7.68;6.95;;;-5.50;99.90;;;;;;5052248;28;20052;-36
2023/02/07 08:08:40;;;;;;;10.60;9.65;;;-5.50;99.90;;;;;;5048862;28;20382;-37
2023/02/07 08:11:09;;;;;;;8.73;7.82;;;-5.40;99.90;;;;;;5047541;28;20049;-37
2023/02/07 08:13:37;;;;;;;12.38;9.68;;;-5.40;99.90;;;;;;5051222;28;20250;-37
2023/02/07 08:16:09;;;;;;;18.92;11.15;;;-5.30;99.90;;;;;;5050628;28;20056;-36
2023/02/07 08:18:37;;;;;;;15.15;11.48;;;-5.30;99.90;;;;;;5053230;28;20065;-37
2023/02/07 08:21:05;;;;;;;15.25;11.88;;;-5.20;99.90;;;;;;5053687;28;20480;-37
2023/02/07 08:23:33;;;;;;;11.07;9.82;;;-5.10;99.90;;;;;;5050669;28;20052;-36
2023/02/07 08:26:01;;;;;;;19.27;12.70;;;-5.10;99.90;;;;;;5046371;28;20434;-36
2023/02/07 08:28:30;;;;;;;11.25;7.47;;;-5.10;99.90;;;;;;5046964;28;20041;-36
2023/02/07 08:31:00;;;;;;;6.57;5.95;;;-5.00;99.90;;;;;;5049118;28;20056;-37
2023/02/07 08:33:27;;;;;;;10.75;9.68;;;-4.90;99.90;;;;;;5046355;28;20427;-37
2023/02/07 08:35:58;;;;;;;15.73;10.85;;;-4.90;99.90;;;;;;5050376;28;20080;-36
2023/02/07 08:38:25;;;;;;;14.63;13.15;;;-4.80;99.90;;;;;;5051434;28;20045;-37
2023/02/07 08:40:53;;;;;;;10.60;9.13;;;-4.70;99.90;;;;;;5051230;28;20045;-37
2023/02/07 08:43:20;;;;;;;14.07;11.43;;;-4.70;99.90;;;;;;5049336;28;20080;-37
2023/02/07 08:45:48;;;;;;;12.00;10.15;;;-4.60;99.90;;;;;;5045600;28;20045;-36
2023/02/07 08:48:16;;;;;;;17.80;13.82;;;-4.50;99.90;;;;;;5045492;28;20045;-36
2023/02/07 08:50:43;;;;;;;12.02;11.07;;;-4.50;99.90;;;;;;5049838;28;20052;-36
2023/02/07 08:53:11;;;;;;;18.75;13.63;;;-4.40;99.90;;;;;;5050514;28;20079;-36
2023/02/07 08:55:40;;;;;;;18.80;12.82;;;-4.30;99.90;;;;;;5033411;28;20084;-38
2023/02/07 08:58:08;;;;;;;14.40;12.73;;;-4.20;99.90;;;;;;5046311;28;20421;-38
2023/02/07 09:00:36;;;;;;;10.80;9.85;;;-4.10;99.90;;;;;;5053576;28;20470;-38
2023/02/07 09:03:04;;;;;;;5.18;4.78;;;-4.10;99.90;;;;;;5045929;28;20409;-41
2023/02/07 09:05:32;;;;;;;11.68;9.73;;;-4.00;99.90;;;;;;5048048;28;20464;-37
2023/02/07 09:08:01;;;;;;;13.70;9.82;;;-3.90;99.90;;;;;;5045560;28;20056;-37
2023/02/07 09:10:29;;;;;;;21.52;14.48;;;-3.70;99.90;;;;;;5049395;28;20409;-37
2023/02/07 09:12:56;;;;;;;10.60;8.23;;;-3.60;99.90;;;;;;5053350;28;20079;-37
2023/02/07 09:15:25;;;;;;;8.55;7.80;;;-3.60;99.90;;;;;;5048650;28;20057;-37
2023/02/07 09:17:52;;;;;;;16.40;12.18;;;-3.40;99.90;;;;;;5051291;28;20052;-38
2023/02/07 09:20:20;;;;;;;11.77;8.90;;;-3.30;99.90;;;;;;5051378;28;20041;-37
2023/02/07 09:25:36;;;;;;;15.52;12.60;;;-3.00;99.90;;;;;;5049966;28;20049;-37
2023/02/07 09:28:04;;;;;;;13.15;7.43;;;-2.30;99.90;;;;;;5051645;28;20057;-37
2023/02/07 09:30:31;;;;;;;6.93;6.28;;;-1.40;99.90;;;;;;5054521;28;20076;-37
2023/02/07 09:32:59;;;;;;;22.30;15.30;;;-0.10;99.90;;;;;;5045733;28;20040;-38
2023/02/07 09:35:27;;;;;;;60.22;31.02;;;1.30;99.90;;;;;;5051932;28;20045;-37
2023/02/07 09:37:54;;;;;;;10.98;8.85;;;1.00;99.90;;;;;;5044644;28;20049;-38
2023/02/07 09:40:22;;;;;;;13.95;8.25;;;0.90;99.90;;;;;;5043975;28;20063;-38
2023/02/07 09:42:54;;;;;;;9.93;7.97;;;1.80;99.90;;;;;;5049002;28;20056;-38
2023/02/07 09:45:26;;;;;;;14.90;11.13;;;1.90;99.90;;;;;;5048521;28;20053;-39
2023/02/07 09:48:05;;;;;;;15.25;10.68;;;1.30;99.90;;;;;;5044003;28;20061;-38
2023/02/07 09:50:44;;;;;;;20.02;15.50;;;1.40;99.90;;;;;;5043015;28;20052;-38
2023/02/07 09:53:18;;;;;;;12.35;9.73;;;1.90;99.90;;;;;;5046822;28;20041;-39
2023/02/07 09:55:53;;;;;;;10.82;9.70;;;1.40;99.90;;;;;;5045574;28;20420;-40
2023/02/07 09:58:59;;;;;;;10.63;8.07;;;0.10;99.90;;;;;;5046640;28;20480;-38
2023/02/07 10:01:44;;;;;;;12.55;10.55;;;-0.60;99.90;;;;;;5047663;28;20428;-38
2023/02/07 10:04:25;;;;;;;14.68;11.23;;;-1.00;99.90;;;;;;5046185;28;20404;-38
2023/02/07 10:06:56;;;;;;;10.55;9.55;;;-1.10;99.90;;;;;;5047806;28;20064;-38
2023/02/07 10:09:32;;;;;;;10.15;8.43;;;-1.30;99.90;;;;;;5042645;28;20432;-40
2023/02/07 10:12:26;;;;;;;16.65;9.93;;;-1.40;99.90;;;;;;5043242;28;20049;-39
2023/02/07 10:15:26;;;;;;;10.20;7.82;;;-1.30;99.90;;;;;;5018441;28;20049;-39
2023/02/07 10:18:16;;;;;;;11.52;10.35;;;-1.20;99.90;;;;;;5041805;28;20404;-38
2023/02/07 10:20:53;;;;;;;11.15;10.30;;;-1.30;99.90;;;;;;5045716;28;20048;-38
2023/02/07 10:23:28;;;;;;;17.65;13.73;;;-1.40;99.90;;;;;;5041941;28;20140;-39
2023/02/07 10:25:56;;;;;;;11.65;9.95;;;-1.40;99.90;;;;;;5043027;28;20041;-39
2023/02/07 10:28:39;;;;;;;18.10;11.93;;;-1.30;99.90;;;;;;5049013;28;20041;-40
2023/02/07 10:31:15;;;;;;;12.43;8.30;;;-1.20;99.90;;;;;;5047373;28;20057;-39
2023/02/07 10:33:49;;;;;;;8.15;7.35;;;-1.20;99.90;;;;;;5045581;28;20036;-38
2023/02/07 10:36:18;;;;;;;11.15;8.93;;;-1.20;99.90;;;;;;5044541;28;20048;-39
2023/02/07 10:38:56;;;;;;;10.70;9.40;;;-1.40;99.90;;;;;;5048984;28;20049;-38
2023/02/07 10:41:37;;;;;;;8.98;7.55;;;-1.40;99.90;;;;;;5044330;28;20048;-42
2023/02/07 10:44:08;;;;;;;11.50;10.40;;;-1.40;99.90;;;;;;5043864;28;20049;-38
2023/02/07 10:46:37;;;;;;;13.40;10.60;;;-1.20;99.90;;;;;;5045412;28;20045;-38
2023/02/07 10:49:05;;;;;;;14.07;10.65;;;-1.10;99.90;;;;;;5040681;28;20044;-38
2023/02/07 10:51:43;;;;;;;3.33;3.03;;;-1.00;99.90;;;;;;5036973;28;20044;-38
2023/02/07 10:54:15;;;;;;;12.90;9.60;;;-0.80;99.90;;;;;;5042547;28;20041;-39
2023/02/07 10:56:53;;;;;;;14.82;11.10;;;-0.70;99.90;;;;;;5047303;28;20068;-39
2023/02/07 10:59:46;;;;;;;6.20;5.53;;;-0.80;99.90;;;;;;5043915;28;20045;-39
2023/02/07 11:02:31;;;;;;;11.88;8.98;;;-0.90;99.90;;;;;;5043154;28;20069;-38
2023/02/07 11:05:04;;;;;;;9.60;8.23;;;-0.80;99.90;;;;;;5040807;28;20064;-39
2023/02/07 11:07:32;;;;;;;14.50;12.20;;;-0.90;99.90;;;;;;5050037;28;20053;-38
2023/02/07 11:10:22;;;;;;;11.57;9.85;;;-0.80;99.90;;;;;;5041100;28;20041;-39
2023/02/07 11:12:54;;;;;;;15.80;8.55;;;-0.80;99.90;;;;;;5045074;28;20052;-39
2023/02/07 11:15:27;;;;;;;14.05;8.75;;;-0.90;99.90;;;;;;5043217;28;20421;-39
2023/02/07 11:17:56;;;;;;;5.47;4.97;;;-0.80;99.90;;;;;;5044510;28;20037;-38
2023/02/07 11:20:48;;;;;;;12.48;11.20;;;-0.80;99.90;;;;;;5042604;28;20056;-39
2023/02/07 11:23:17;;;;;;;15.40;12.43;;;-0.90;99.90;;;;;;5037570;28;20482;-39
2023/02/07 11:25:46;;;;;;;14.23;8.95;;;-0.90;99.90;;;;;;5032474;28;20052;-39
2023/02/07 11:28:19;;;;;;;9.63;7.82;;;-0.80;99.90;;;;;;5044152;28;20390;-38
2023/02/07 11:30:55;;;;;;;13.10;11.68;;;-0.60;99.90;;;;;;5042822;28;20056;-38
2023/02/07 11:33:27;;;;;;;10.15;9.15;;;-0.60;99.90;;;;;;5036573;28;20045;-39
2023/02/07 11:36:10;;;;;;;13.77;8.20;;;-0.60;99.90;;;;;;5041439;28;20080;-41
2023/02/07 11:38:52;;;;;;;10.07;7.70;;;-0.40;99.90;;;;;;5016471;28;20123;-39
2023/02/07 11:41:27;;;;;;;9.48;8.50;;;-0.50;99.90;;;;;;5038437;28;20049;-39
2023/02/07 11:44:12;;;;;;;13.13;9.93;;;-0.60;99.90;;;;;;5041852;28;20377;-41
2023/02/07 11:46:43;;;;;;;9.02;7.82;;;-0.60;99.90;;;;;;5017992;28;20409;-39
2023/02/07 11:49:28;;;;;;;7.80;5.20;;;-0.50;99.90;;;;;;5039792;28;20045;-40
2023/02/07 11:51:59;;;;;;;12.40;9.57;;;-0.50;99.90;;;;;;5042626;28;20052;-38
2023/02/07 11:54:28;;;;;;;14.20;12.20;;;-0.50;99.90;;;;;;5043725;28;20045;-39
2023/02/07 11:57:11;;;;;;;8.18;7.38;;;-0.40;99.90;;;;;;5045067;28;20055;-39
2023/02/07 12:00:00;;;;;;;8.77;7.97;;;-0.40;99.90;;;;;;5043468;28;20060;-39
2023/02/07 12:02:29;;;;;;;10.10;7.57;;;-0.20;99.90;;;;;;5032701;28;20416;-39
2023/02/07 12:05:15;;;;;;;13.55;8.35;;;-0.10;99.90;;;;;;5045264;28;20049;-39
2023/02/07 12:07:48;;;;;;;19.45;16.45;;;-0.20;99.90;;;;;;5044918;28;20060;-39
2023/02/07 12:10:22;;;;;;;9.55;7.53;;;-0.20;99.90;;;;;;5038480;28;20048;-39
2023/02/07 12:13:18;;;;;;;10.60;8.15;;;-0.30;99.90;;;;;;5044138;28;20484;-38
2023/02/07 12:16:08;;;;;;;18.23;11.68;;;-0.20;99.90;;;;;;5032528;28;20509;-39
2023/02/07 12:18:48;;;;;;;8.05;4.72;;;-0.10;99.90;;;;;;5037474;28;20033;-39
2023/02/07 12:21:15;;;;;;;13.50;7.32;;;0.10;99.90;;;;;;5043645;28;20069;-40
2023/02/07 12:24:04;;;;;;;10.32;8.68;;;0.10;99.90;;;;;;5035331;28;20053;-39
2023/02/07 12:26:50;;;;;;;7.35;5.43;;;0.20;99.90;;;;;;5034936;28;20049;-38
2023/02/07 12:29:48;;;;;;;10.23;9.30;;;0.20;99.90;;;;;;5037420;28;20224;-40
2023/02/07 12:32:50;;;;;;;8.35;7.47;;;0.30;99.90;;;;;;5038366;28;20045;-39
2023/02/07 12:35:23;;;;;;;13.02;6.07;;;0.10;99.90;;;;;;5039690;28;20065;-39
2023/02/07 12:38:16;;;;;;;18.33;12.38;;;0.10;99.90;;;;;;5041307;28;20076;-41
2023/02/07 12:40:46;;;;;;;6.00;4.70;;;0.20;99.90;;;;;;5037287;28;20056;-38
2023/02/07 12:43:21;;;;;;;5.10;4.80;;;0.20;99.90;;;;;;5042320;28;20049;-40
2023/02/07 12:46:01;;;;;;;10.98;7.65;;;0.20;99.90;;;;;;5041454;28;20053;-39
2023/02/07 12:48:59;;;;;;;10.13;7.95;;;0.20;99.90;;;;;;5042878;28;20060;-38
2023/02/07 12:51:40;;;;;;;7.13;6.07;;;0.40;99.90;;;;;;5040319;28;20053;-39
2023/02/07 12:54:17;;;;;;;10.10;7.73;;;0.20;99.90;;;;;;5037941;28;20361;-39
2023/02/07 12:56:52;;;;;;;8.73;6.28;;;0.20;99.90;;;;;;5038435;28;20291;-38
2023/02/07 12:59:39;;;;;;;6.93;5.82;;;0.20;99.90;;;;;;5041449;28;20053;-40
2023/02/07 13:02:26;;;;;;;16.42;6.85;;;0.20;99.90;;;;;;5045733;28;20504;-39
2023/02/07 13:05:24;;;;;;;10.82;8.32;;;0.30;99.90;;;;;;5042537;28;20051;-38
2023/02/07 13:07:59;;;;;;;8.85;6.60;;;0.30;99.90;;;;;;5041694;28;20329;-37